sensor_id;sensor_type;location;lat;lon;timestamp;temperature;humidity
35127;DHT22;21300;52.006;5.798;2023-04-16T00:00:50;9.40;96.70
35127;DHT22;21300;52.006;5.798;2023-04-16T00:03:16;9.40;96.70
35127;DHT22;21300;52.006;5.798;2023-04-16T00:05:42;9.40;96.70
35127;DHT22;21300;52.006;5.798;2023-04-16T00:08:07;9.40;96.80
35127;DHT22;21300;52.006;5.798;2023-04-16T00:10:34;9.40;96.80
35127;DHT22;21300;52.006;5.798;2023-04-16T00:13:00;9.40;96.80
35127;DHT22;21300;52.006;5.798;2023-04-16T00:15:25;9.40;96.80
35127;DHT22;21300;52.006;5.798;2023-04-16T00:17:52;9.40;96.80
35127;DHT22;21300;52.006;5.798;2023-04-16T00:20:18;9.40;96.80
35127;DHT22;21300;52.006;5.798;2023-04-16T00:22:45;9.40;96.90
35127;DHT22;21300;52.006;5.798;2023-04-16T00:25:11;9.40;97.00
35127;DHT22;21300;52.006;5.798;2023-04-16T00:27:37;9.40;96.90
35127;DHT22;21300;52.006;5.798;2023-04-16T00:30:03;9.40;97.00
35127;DHT22;21300;52.006;5.798;2023-04-16T00:32:30;9.40;96.90
35127;DHT22;21300;52.006;5.798;2023-04-16T00:34:55;9.40;97.00
35127;DHT22;21300;52.006;5.798;2023-04-16T00:37:21;9.30;97.00
35127;DHT22;21300;52.006;5.798;2023-04-16T00:39:47;9.30;97.00
35127;DHT22;21300;52.006;5.798;2023-04-16T00:42:12;9.40;97.00
35127;DHT22;21300;52.006;5.798;2023-04-16T00:44:38;9.30;97.10
35127;DHT22;21300;52.006;5.798;2023-04-16T00:47:04;9.30;97.10
35127;DHT22;21300;52.006;5.798;2023-04-16T00:49:31;9.30;97.00
35127;DHT22;21300;52.006;5.798;2023-04-16T00:51:57;9.30;97.00
35127;DHT22;21300;52.006;5.798;2023-04-16T00:54:24;9.30;97.10
35127;DHT22;21300;52.006;5.798;2023-04-16T00:56:50;9.30;97.00
35127;DHT22;21300;52.006;5.798;2023-04-16T00:59:16;9.30;97.00
35127;DHT22;21300;52.006;5.798;2023-04-16T01:01:42;9.30;97.10
35127;DHT22;21300;52.006;5.798;2023-04-16T01:04:07;9.30;97.10
35127;DHT22;21300;52.006;5.798;2023-04-16T01:06:33;9.30;97.20
35127;DHT22;21300;52.006;5.798;2023-04-16T01:08:58;9.30;97.10
35127;DHT22;21300;52.006;5.798;2023-04-16T01:11:24;9.30;97.20
35127;DHT22;21300;52.006;5.798;2023-04-16T01:13:50;9.30;97.60
35127;DHT22;21300;52.006;5.798;2023-04-16T01:16:16;9.30;97.20
35127;DHT22;21300;52.006;5.798;2023-04-16T01:18:41;9.30;97.20
35127;DHT22;21300;52.006;5.798;2023-04-16T01:21:07;9.30;97.20
35127;DHT22;21300;52.006;5.798;2023-04-16T01:23:33;9.30;97.20
35127;DHT22;21300;52.006;5.798;2023-04-16T01:25:58;9.30;97.20
35127;DHT22;21300;52.006;5.798;2023-04-16T01:28:24;9.30;97.30
35127;DHT22;21300;52.006;5.798;2023-04-16T01:30:49;9.30;97.30
35127;DHT22;21300;52.006;5.798;2023-04-16T01:33:16;9.30;97.30
35127;DHT22;21300;52.006;5.798;2023-04-16T01:35:42;9.30;97.30
35127;DHT22;21300;52.006;5.798;2023-04-16T01:38:08;9.30;97.30
35127;DHT22;21300;52.006;5.798;2023-04-16T01:40:35;9.20;97.30
35127;DHT22;21300;52.006;5.798;2023-04-16T01:43:01;9.20;97.30
35127;DHT22;21300;52.006;5.798;2023-04-16T01:45:27;9.20;97.30
35127;DHT22;21300;52.006;5.798;2023-04-16T01:47:53;9.20;97.40
35127;DHT22;21300;52.006;5.798;2023-04-16T01:50:19;9.30;97.30
35127;DHT22;21300;52.006;5.798;2023-04-16T01:52:45;9.20;97.30
35127;DHT22;21300;52.006;5.798;2023-04-16T01:55:12;9.30;97.50
35127;DHT22;21300;52.006;5.798;2023-04-16T01:57:37;9.20;97.40
35127;DHT22;21300;52.006;5.798;2023-04-16T02:00:04;9.20;97.40
35127;DHT22;21300;52.006;5.798;2023-04-16T02:02:30;9.20;97.50
35127;DHT22;21300;52.006;5.798;2023-04-16T02:04:56;9.20;97.40
35127;DHT22;21300;52.006;5.798;2023-04-16T02:07:22;9.20;97.40
35127;DHT22;21300;52.006;5.798;2023-04-16T02:09:48;9.20;97.40
35127;DHT22;21300;52.006;5.798;2023-04-16T02:12:15;9.20;97.60
35127;DHT22;21300;52.006;5.798;2023-04-16T02:14:40;9.20;97.50
35127;DHT22;21300;52.006;5.798;2023-04-16T02:17:06;9.20;97.40
35127;DHT22;21300;52.006;5.798;2023-04-16T02:19:32;9.20;97.40
35127;DHT22;21300;52.006;5.798;2023-04-16T02:21:57;9.20;97.50
35127;DHT22;21300;52.006;5.798;2023-04-16T02:24:23;9.20;97.70
35127;DHT22;21300;52.006;5.798;2023-04-16T02:26:48;9.20;97.50
35127;DHT22;21300;52.006;5.798;2023-04-16T02:29:14;9.20;97.50
35127;DHT22;21300;52.006;5.798;2023-04-16T02:31:41;9.20;97.60
35127;DHT22;21300;52.006;5.798;2023-04-16T02:34:06;9.20;97.60
35127;DHT22;21300;52.006;5.798;2023-04-16T02:36:33;9.20;97.50
35127;DHT22;21300;52.006;5.798;2023-04-16T02:38:58;9.20;97.50
35127;DHT22;21300;52.006;5.798;2023-04-16T02:41:24;9.20;97.50
35127;DHT22;21300;52.006;5.798;2023-04-16T02:43:50;9.20;97.50
35127;DHT22;21300;52.006;5.798;2023-04-16T02:46:15;9.20;97.50
35127;DHT22;21300;52.006;5.798;2023-04-16T02:48:41;9.20;97.50
35127;DHT22;21300;52.006;5.798;2023-04-16T02:51:06;9.20;97.50
35127;DHT22;21300;52.006;5.798;2023-04-16T02:53:32;9.20;97.60
35127;DHT22;21300;52.006;5.798;2023-04-16T02:55:58;9.20;97.50
35127;DHT22;21300;52.006;5.798;2023-04-16T02:58:24;9.20;97.50
35127;DHT22;21300;52.006;5.798;2023-04-16T03:00:51;9.20;97.60
35127;DHT22;21300;52.006;5.798;2023-04-16T03:03:17;9.20;97.60
35127;DHT22;21300;52.006;5.798;2023-04-16T03:05:43;9.20;97.90
35127;DHT22;21300;52.006;5.798;2023-04-16T03:08:09;9.10;97.60
35127;DHT22;21300;52.006;5.798;2023-04-16T03:10:35;9.20;97.60
35127;DHT22;21300;52.006;5.798;2023-04-16T03:13:02;9.10;97.70
35127;DHT22;21300;52.006;5.798;2023-04-16T03:15:28;9.20;97.60
35127;DHT22;21300;52.006;5.798;2023-04-16T03:17:54;9.10;97.60
35127;DHT22;21300;52.006;5.798;2023-04-16T03:20:20;9.10;97.60
35127;DHT22;21300;52.006;5.798;2023-04-16T03:22:46;9.10;97.70
35127;DHT22;21300;52.006;5.798;2023-04-16T03:25:12;9.20;97.60
35127;DHT22;21300;52.006;5.798;2023-04-16T03:27:38;9.10;97.70
35127;DHT22;21300;52.006;5.798;2023-04-16T03:30:09;9.10;97.70
35127;DHT22;21300;52.006;5.798;2023-04-16T03:32:35;9.10;97.70
35127;DHT22;21300;52.006;5.798;2023-04-16T03:35:05;9.10;97.60
35127;DHT22;21300;52.006;5.798;2023-04-16T03:37:31;9.10;97.70
35127;DHT22;21300;52.006;5.798;2023-04-16T03:39:57;9.10;97.70
35127;DHT22;21300;52.006;5.798;2023-04-16T03:42:22;9.10;97.70
35127;DHT22;21300;52.006;5.798;2023-04-16T03:44:48;9.10;97.80
35127;DHT22;21300;52.006;5.798;2023-04-16T03:47:14;9.10;97.70
35127;DHT22;21300;52.006;5.798;2023-04-16T03:49:39;9.10;97.70
35127;DHT22;21300;52.006;5.798;2023-04-16T03:52:05;9.10;97.80
35127;DHT22;21300;52.006;5.798;2023-04-16T03:54:31;9.10;97.70
35127;DHT22;21300;52.006;5.798;2023-04-16T03:56:56;9.10;97.70
35127;DHT22;21300;52.006;5.798;2023-04-16T03:59:22;9.10;97.70
35127;DHT22;21300;52.006;5.798;2023-04-16T04:01:47;9.10;97.80
35127;DHT22;21300;52.006;5.798;2023-04-16T04:04:13;9.10;97.80
35127;DHT22;21300;52.006;5.798;2023-04-16T04:06:39;9.10;97.80
35127;DHT22;21300;52.006;5.798;2023-04-16T04:09:05;9.10;97.80
35127;DHT22;21300;52.006;5.798;2023-04-16T04:11:31;9.10;97.80
35127;DHT22;21300;52.006;5.798;2023-04-16T04:13:56;9.10;97.80
35127;DHT22;21300;52.006;5.798;2023-04-16T04:16:22;9.10;97.90
35127;DHT22;21300;52.006;5.798;2023-04-16T04:18:47;9.10;97.80
35127;DHT22;21300;52.006;5.798;2023-04-16T04:21:13;9.10;97.80
35127;DHT22;21300;52.006;5.798;2023-04-16T04:23:38;9.10;97.80
35127;DHT22;21300;52.006;5.798;2023-04-16T04:26:06;9.10;97.80
35127;DHT22;21300;52.006;5.798;2023-04-16T04:28:32;9.10;97.80
35127;DHT22;21300;52.006;5.798;2023-04-16T04:30:58;9.10;97.80
35127;DHT22;21300;52.006;5.798;2023-04-16T04:33:24;9.10;97.90
35127;DHT22;21300;52.006;5.798;2023-04-16T04:35:51;9.10;97.90
35127;DHT22;21300;52.006;5.798;2023-04-16T04:38:16;9.10;97.80
35127;DHT22;21300;52.006;5.798;2023-04-16T04:40:44;9.10;97.90
35127;DHT22;21300;52.006;5.798;2023-04-16T04:43:10;9.10;98.00
35127;DHT22;21300;52.006;5.798;2023-04-16T04:45:36;9.10;98.00
35127;DHT22;21300;52.006;5.798;2023-04-16T04:48:01;9.10;98.00
35127;DHT22;21300;52.006;5.798;2023-04-16T04:50:27;9.00;97.90
35127;DHT22;21300;52.006;5.798;2023-04-16T04:52:53;9.10;98.00
35127;DHT22;21300;52.006;5.798;2023-04-16T04:55:18;9.10;97.90
35127;DHT22;21300;52.006;5.798;2023-04-16T04:57:44;9.10;97.90
35127;DHT22;21300;52.006;5.798;2023-04-16T05:00:10;9.10;98.00
35127;DHT22;21300;52.006;5.798;2023-04-16T05:02:36;9.10;98.00
35127;DHT22;21300;52.006;5.798;2023-04-16T05:05:02;9.00;97.90
35127;DHT22;21300;52.006;5.798;2023-04-16T05:07:28;9.10;98.00
35127;DHT22;21300;52.006;5.798;2023-04-16T05:09:53;9.10;98.10
35127;DHT22;21300;52.006;5.798;2023-04-16T05:12:19;9.10;98.00
35127;DHT22;21300;52.006;5.798;2023-04-16T05:14:44;9.10;98.00
35127;DHT22;21300;52.006;5.798;2023-04-16T05:17:10;9.00;98.00
35127;DHT22;21300;52.006;5.798;2023-04-16T05:19:35;9.00;98.00
35127;DHT22;21300;52.006;5.798;2023-04-16T05:22:01;9.00;98.00
35127;DHT22;21300;52.006;5.798;2023-04-16T05:24:27;9.00;98.00
35127;DHT22;21300;52.006;5.798;2023-04-16T05:26:53;9.00;98.00
35127;DHT22;21300;52.006;5.798;2023-04-16T05:29:18;9.00;98.10
35127;DHT22;21300;52.006;5.798;2023-04-16T05:31:44;9.10;98.20
35127;DHT22;21300;52.006;5.798;2023-04-16T05:34:10;9.10;98.20
35127;DHT22;21300;52.006;5.798;2023-04-16T05:36:35;9.00;98.30
35127;DHT22;21300;52.006;5.798;2023-04-16T05:39:01;9.00;98.40
35127;DHT22;21300;52.006;5.798;2023-04-16T05:41:27;9.00;98.70
35127;DHT22;21300;52.006;5.798;2023-04-16T05:43:52;9.10;98.70
35127;DHT22;21300;52.006;5.798;2023-04-16T05:46:18;9.00;98.70
35127;DHT22;21300;52.006;5.798;2023-04-16T05:48:44;9.00;98.60
35127;DHT22;21300;52.006;5.798;2023-04-16T05:51:09;9.00;98.50
35127;DHT22;21300;52.006;5.798;2023-04-16T05:53:35;9.10;98.50
35127;DHT22;21300;52.006;5.798;2023-04-16T05:56:00;9.00;98.50
35127;DHT22;21300;52.006;5.798;2023-04-16T05:58:26;9.00;98.40
35127;DHT22;21300;52.006;5.798;2023-04-16T06:00:51;9.10;98.60
35127;DHT22;21300;52.006;5.798;2023-04-16T06:03:17;9.00;98.40
35127;DHT22;21300;52.006;5.798;2023-04-16T06:05:43;9.00;98.40
35127;DHT22;21300;52.006;5.798;2023-04-16T06:08:09;9.00;98.40
35127;DHT22;21300;52.006;5.798;2023-04-16T06:10:34;9.00;98.30
35127;DHT22;21300;52.006;5.798;2023-04-16T06:13:00;9.00;98.40
35127;DHT22;21300;52.006;5.798;2023-04-16T06:15:25;9.00;98.50
35127;DHT22;21300;52.006;5.798;2023-04-16T06:17:51;9.00;98.40
35127;DHT22;21300;52.006;5.798;2023-04-16T06:20:16;9.00;98.40
35127;DHT22;21300;52.006;5.798;2023-04-16T06:22:42;9.00;98.40
35127;DHT22;21300;52.006;5.798;2023-04-16T06:25:08;9.10;98.50
35127;DHT22;21300;52.006;5.798;2023-04-16T06:27:34;9.10;98.80
35127;DHT22;21300;52.006;5.798;2023-04-16T06:29:59;9.10;98.50
35127;DHT22;21300;52.006;5.798;2023-04-16T06:32:25;9.00;98.40
35127;DHT22;21300;52.006;5.798;2023-04-16T06:34:51;9.00;98.40
35127;DHT22;21300;52.006;5.798;2023-04-16T06:37:16;9.00;98.40
35127;DHT22;21300;52.006;5.798;2023-04-16T06:39:42;9.10;98.40
35127;DHT22;21300;52.006;5.798;2023-04-16T06:42:07;9.00;98.40
35127;DHT22;21300;52.006;5.798;2023-04-16T06:44:34;9.00;98.30
35127;DHT22;21300;52.006;5.798;2023-04-16T06:47:00;9.10;98.40
35127;DHT22;21300;52.006;5.798;2023-04-16T06:49:25;9.00;98.40
35127;DHT22;21300;52.006;5.798;2023-04-16T06:51:51;9.00;98.30
35127;DHT22;21300;52.006;5.798;2023-04-16T06:54:16;9.00;98.40
35127;DHT22;21300;52.006;5.798;2023-04-16T06:56:44;9.00;98.90
35127;DHT22;21300;52.006;5.798;2023-04-16T06:59:09;9.00;99.10
35127;DHT22;21300;52.006;5.798;2023-04-16T07:01:35;9.10;99.30
35127;DHT22;21300;52.006;5.798;2023-04-16T07:04:00;9.00;99.10
35127;DHT22;21300;52.006;5.798;2023-04-16T07:06:26;9.10;99.10
35127;DHT22;21300;52.006;5.798;2023-04-16T07:08:52;9.10;99.10
35127;DHT22;21300;52.006;5.798;2023-04-16T07:11:18;9.10;99.00
35127;DHT22;21300;52.006;5.798;2023-04-16T07:13:43;9.10;99.10
35127;DHT22;21300;52.006;5.798;2023-04-16T07:16:09;9.10;99.00
35127;DHT22;21300;52.006;5.798;2023-04-16T07:18:35;9.10;99.10
35127;DHT22;21300;52.006;5.798;2023-04-16T07:21:01;9.20;99.20
35127;DHT22;21300;52.006;5.798;2023-04-16T07:23:26;9.10;99.20
35127;DHT22;21300;52.006;5.798;2023-04-16T07:25:52;9.10;99.90
35127;DHT22;21300;52.006;5.798;2023-04-16T07:28:18;9.10;99.90
35127;DHT22;21300;52.006;5.798;2023-04-16T07:30:43;9.10;99.90
35127;DHT22;21300;52.006;5.798;2023-04-16T07:33:09;9.10;99.90
35127;DHT22;21300;52.006;5.798;2023-04-16T07:35:35;9.10;99.90
35127;DHT22;21300;52.006;5.798;2023-04-16T07:38:00;9.10;99.90
35127;DHT22;21300;52.006;5.798;2023-04-16T07:40:26;9.10;99.90
35127;DHT22;21300;52.006;5.798;2023-04-16T07:42:52;9.10;99.90
35127;DHT22;21300;52.006;5.798;2023-04-16T07:45:18;9.10;99.90
35127;DHT22;21300;52.006;5.798;2023-04-16T07:47:43;9.10;99.90
35127;DHT22;21300;52.006;5.798;2023-04-16T07:50:10;9.10;99.90
35127;DHT22;21300;52.006;5.798;2023-04-16T07:52:36;9.10;99.90
35127;DHT22;21300;52.006;5.798;2023-04-16T07:55:03;9.10;99.90
35127;DHT22;21300;52.006;5.798;2023-04-16T07:57:29;9.10;99.90
35127;DHT22;21300;52.006;5.798;2023-04-16T07:59:55;9.10;99.90
35127;DHT22;21300;52.006;5.798;2023-04-16T08:02:20;9.20;99.90
35127;DHT22;21300;52.006;5.798;2023-04-16T08:04:46;9.20;99.90
35127;DHT22;21300;52.006;5.798;2023-04-16T08:07:12;9.20;99.90
35127;DHT22;21300;52.006;5.798;2023-04-16T08:09:49;9.20;99.90
35127;DHT22;21300;52.006;5.798;2023-04-16T08:12:15;9.20;99.90
35127;DHT22;21300;52.006;5.798;2023-04-16T08:14:43;9.20;99.90
35127;DHT22;21300;52.006;5.798;2023-04-16T08:17:10;9.20;99.90
35127;DHT22;21300;52.006;5.798;2023-04-16T08:19:35;9.20;99.90
35127;DHT22;21300;52.006;5.798;2023-04-16T08:22:01;9.20;99.90
35127;DHT22;21300;52.006;5.798;2023-04-16T08:24:26;9.20;99.90
35127;DHT22;21300;52.006;5.798;2023-04-16T08:26:52;9.20;99.90
35127;DHT22;21300;52.006;5.798;2023-04-16T08:29:17;9.20;99.90
35127;DHT22;21300;52.006;5.798;2023-04-16T08:31:45;9.20;99.90
35127;DHT22;21300;52.006;5.798;2023-04-16T08:34:11;9.20;99.90
35127;DHT22;21300;52.006;5.798;2023-04-16T08:36:36;9.30;99.90
35127;DHT22;21300;52.006;5.798;2023-04-16T08:39:02;9.20;99.90
35127;DHT22;21300;52.006;5.798;2023-04-16T08:41:30;9.30;99.90
35127;DHT22;21300;52.006;5.798;2023-04-16T08:43:59;9.30;99.90
35127;DHT22;21300;52.006;5.798;2023-04-16T08:46:25;9.30;99.90
35127;DHT22;21300;52.006;5.798;2023-04-16T08:48:54;9.30;99.90
35127;DHT22;21300;52.006;5.798;2023-04-16T08:51:22;9.40;99.90
35127;DHT22;21300;52.006;5.798;2023-04-16T08:53:52;9.40;99.90
35127;DHT22;21300;52.006;5.798;2023-04-16T08:56:36;9.40;99.90
35127;DHT22;21300;52.006;5.798;2023-04-16T08:59:03;9.40;99.90
35127;DHT22;21300;52.006;5.798;2023-04-16T09:01:32;9.40;99.90
35127;DHT22;21300;52.006;5.798;2023-04-16T09:03:58;9.40;99.90
35127;DHT22;21300;52.006;5.798;2023-04-16T09:06:26;9.40;99.90
35127;DHT22;21300;52.006;5.798;2023-04-16T09:08:53;9.50;99.90
35127;DHT22;21300;52.006;5.798;2023-04-16T09:11:19;9.50;99.90
35127;DHT22;21300;52.006;5.798;2023-04-16T09:13:45;9.50;99.90
35127;DHT22;21300;52.006;5.798;2023-04-16T09:16:12;9.50;99.90
35127;DHT22;21300;52.006;5.798;2023-04-16T09:18:38;9.50;99.90
35127;DHT22;21300;52.006;5.798;2023-04-16T09:21:03;9.50;99.90
35127;DHT22;21300;52.006;5.798;2023-04-16T09:23:29;9.50;99.90
35127;DHT22;21300;52.006;5.798;2023-04-16T09:25:57;9.50;99.90
35127;DHT22;21300;52.006;5.798;2023-04-16T09:28:47;9.60;99.90
35127;DHT22;21300;52.006;5.798;2023-04-16T09:31:15;9.60;99.90
35127;DHT22;21300;52.006;5.798;2023-04-16T09:33:42;9.60;99.90
35127;DHT22;21300;52.006;5.798;2023-04-16T09:36:08;9.60;99.90
35127;DHT22;21300;52.006;5.798;2023-04-16T09:38:51;9.70;99.90
35127;DHT22;21300;52.006;5.798;2023-04-16T09:41:17;9.70;99.90
35127;DHT22;21300;52.006;5.798;2023-04-16T09:43:58;9.70;99.90
35127;DHT22;21300;52.006;5.798;2023-04-16T09:46:40;9.80;99.90
35127;DHT22;21300;52.006;5.798;2023-04-16T09:49:16;9.80;99.90
35127;DHT22;21300;52.006;5.798;2023-04-16T09:51:47;9.70;99.90
35127;DHT22;21300;52.006;5.798;2023-04-16T09:54:18;9.80;99.90
35127;DHT22;21300;52.006;5.798;2023-04-16T09:56:45;9.80;99.90
35127;DHT22;21300;52.006;5.798;2023-04-16T09:59:21;9.80;99.90
35127;DHT22;21300;52.006;5.798;2023-04-16T10:01:47;9.80;99.90
35127;DHT22;21300;52.006;5.798;2023-04-16T10:04:14;9.90;99.90
35127;DHT22;21300;52.006;5.798;2023-04-16T10:06:40;9.90;99.90
35127;DHT22;21300;52.006;5.798;2023-04-16T10:09:08;9.90;99.90
35127;DHT22;21300;52.006;5.798;2023-04-16T10:11:35;9.90;99.90
35127;DHT22;21300;52.006;5.798;2023-04-16T10:14:01;9.90;99.90
35127;DHT22;21300;52.006;5.798;2023-04-16T10:16:28;9.90;99.90
35127;DHT22;21300;52.006;5.798;2023-04-16T10:18:54;9.90;99.90
35127;DHT22;21300;52.006;5.798;2023-04-16T10:21:20;10.00;99.90
35127;DHT22;21300;52.006;5.798;2023-04-16T10:23:46;10.00;99.90
35127;DHT22;21300;52.006;5.798;2023-04-16T10:26:14;10.00;99.90
35127;DHT22;21300;52.006;5.798;2023-04-16T10:28:40;10.00;99.90
35127;DHT22;21300;52.006;5.798;2023-04-16T10:31:07;10.10;99.90
35127;DHT22;21300;52.006;5.798;2023-04-16T10:36:23;10.10;99.90
35127;DHT22;21300;52.006;5.798;2023-04-16T10:38:50;10.10;99.90
35127;DHT22;21300;52.006;5.798;2023-04-16T10:41:19;10.20;99.90
35127;DHT22;21300;52.006;5.798;2023-04-16T10:43:47;10.20;99.90
35127;DHT22;21300;52.006;5.798;2023-04-16T10:46:34;10.20;99.90
35127;DHT22;21300;52.006;5.798;2023-04-16T10:49:18;10.20;99.90
35127;DHT22;21300;52.006;5.798;2023-04-16T10:52:08;10.30;99.90
35127;DHT22;21300;52.006;5.798;2023-04-16T10:54:35;10.30;99.90
35127;DHT22;21300;52.006;5.798;2023-04-16T10:57:07;10.30;99.90
35127;DHT22;21300;52.006;5.798;2023-04-16T10:59:34;10.40;99.90
35127;DHT22;21300;52.006;5.798;2023-04-16T11:02:06;10.40;99.90
35127;DHT22;21300;52.006;5.798;2023-04-16T11:04:35;10.40;99.90
35127;DHT22;21300;52.006;5.798;2023-04-16T11:09:56;10.50;99.70
35127;DHT22;21300;52.006;5.798;2023-04-16T11:14:54;10.50;99.70
35127;DHT22;21300;52.006;5.798;2023-04-16T11:17:22;10.50;99.60
35127;DHT22;21300;52.006;5.798;2023-04-16T11:19:52;10.60;99.60
35127;DHT22;21300;52.006;5.798;2023-04-16T11:22:17;10.60;99.70
35127;DHT22;21300;52.006;5.798;2023-04-16T11:24:44;10.60;99.60
35127;DHT22;21300;52.006;5.798;2023-04-16T11:27:14;10.60;99.50
35127;DHT22;21300;52.006;5.798;2023-04-16T11:29:40;10.70;99.50
35127;DHT22;21300;52.006;5.798;2023-04-16T11:32:06;10.70;99.40
35127;DHT22;21300;52.006;5.798;2023-04-16T11:34:32;10.70;99.60
35127;DHT22;21300;52.006;5.798;2023-04-16T11:36:58;10.80;99.30
35127;DHT22;21300;52.006;5.798;2023-04-16T11:39:23;10.80;99.20
35127;DHT22;21300;52.006;5.798;2023-04-16T11:41:50;10.80;99.10
35127;DHT22;21300;52.006;5.798;2023-04-16T11:44:24;10.80;99.10
35127;DHT22;21300;52.006;5.798;2023-04-16T11:46:51;10.90;99.00
35127;DHT22;21300;52.006;5.798;2023-04-16T11:49:29;10.90;98.90
35127;DHT22;21300;52.006;5.798;2023-04-16T11:51:55;11.00;98.90
35127;DHT22;21300;52.006;5.798;2023-04-16T11:54:22;11.00;98.70
35127;DHT22;21300;52.006;5.798;2023-04-16T11:56:49;11.00;98.60
35127;DHT22;21300;52.006;5.798;2023-04-16T11:59:16;11.00;98.60
35127;DHT22;21300;52.006;5.798;2023-04-16T12:01:47;11.10;98.50
35127;DHT22;21300;52.006;5.798;2023-04-16T12:04:32;11.10;98.40
35127;DHT22;21300;52.006;5.798;2023-04-16T12:07:11;11.10;98.30
35127;DHT22;21300;52.006;5.798;2023-04-16T12:09:41;11.20;98.20
35127;DHT22;21300;52.006;5.798;2023-04-16T12:12:27;11.20;98.10
35127;DHT22;21300;52.006;5.798;2023-04-16T12:14:55;11.20;98.00
35127;DHT22;21300;52.006;5.798;2023-04-16T12:17:22;11.30;97.90
35127;DHT22;21300;52.006;5.798;2023-04-16T12:19:54;11.30;97.80
35127;DHT22;21300;52.006;5.798;2023-04-16T12:22:31;11.30;97.70
35127;DHT22;21300;52.006;5.798;2023-04-16T12:25:01;11.40;97.60
35127;DHT22;21300;52.006;5.798;2023-04-16T12:27:48;11.40;97.60
35127;DHT22;21300;52.006;5.798;2023-04-16T12:30:17;11.40;97.50
35127;DHT22;21300;52.006;5.798;2023-04-16T12:32:44;11.40;97.40
35127;DHT22;21300;52.006;5.798;2023-04-16T12:35:11;11.50;97.40
35127;DHT22;21300;52.006;5.798;2023-04-16T12:37:37;11.50;97.30
35127;DHT22;21300;52.006;5.798;2023-04-16T12:40:03;11.50;97.20
35127;DHT22;21300;52.006;5.798;2023-04-16T12:42:30;11.60;97.10
35127;DHT22;21300;52.006;5.798;2023-04-16T12:45:04;11.60;97.10
35127;DHT22;21300;52.006;5.798;2023-04-16T12:47:31;11.60;97.00
35127;DHT22;21300;52.006;5.798;2023-04-16T12:49:56;11.60;97.00
35127;DHT22;21300;52.006;5.798;2023-04-16T12:52:41;11.70;96.80
35127;DHT22;21300;52.006;5.798;2023-04-16T12:55:07;11.70;96.80
35127;DHT22;21300;52.006;5.798;2023-04-16T12:57:33;11.70;96.70
35127;DHT22;21300;52.006;5.798;2023-04-16T12:59:58;11.80;96.70
35127;DHT22;21300;52.006;5.798;2023-04-16T13:02:24;11.80;96.70
35127;DHT22;21300;52.006;5.798;2023-04-16T13:04:51;11.80;96.70
35127;DHT22;21300;52.006;5.798;2023-04-16T13:07:17;11.90;96.60
35127;DHT22;21300;52.006;5.798;2023-04-16T13:09:43;11.90;96.50
35127;DHT22;21300;52.006;5.798;2023-04-16T13:12:08;11.90;96.50
35127;DHT22;21300;52.006;5.798;2023-04-16T13:17:19;12.00;96.40
35127;DHT22;21300;52.006;5.798;2023-04-16T13:19:44;12.00;96.30
35127;DHT22;21300;52.006;5.798;2023-04-16T13:22:10;12.10;96.20
35127;DHT22;21300;52.006;5.798;2023-04-16T13:24:36;12.10;96.10
35127;DHT22;21300;52.006;5.798;2023-04-16T13:27:01;12.10;96.10
35127;DHT22;21300;52.006;5.798;2023-04-16T13:29:27;12.10;96.00
35127;DHT22;21300;52.006;5.798;2023-04-16T13:31:54;12.20;96.00
35127;DHT22;21300;52.006;5.798;2023-04-16T13:34:20;12.20;96.00
35127;DHT22;21300;52.006;5.798;2023-04-16T13:36:45;12.20;95.90
35127;DHT22;21300;52.006;5.798;2023-04-16T13:39:11;12.30;95.80
35127;DHT22;21300;52.006;5.798;2023-04-16T13:41:37;12.30;95.80
35127;DHT22;21300;52.006;5.798;2023-04-16T13:44:03;12.30;95.70
35127;DHT22;21300;52.006;5.798;2023-04-16T13:46:29;12.30;95.70
35127;DHT22;21300;52.006;5.798;2023-04-16T13:48:55;12.40;95.70
35127;DHT22;21300;52.006;5.798;2023-04-16T13:51:21;12.40;95.70
35127;DHT22;21300;52.006;5.798;2023-04-16T13:53:46;12.40;95.60
35127;DHT22;21300;52.006;5.798;2023-04-16T13:56:12;12.50;95.80
35127;DHT22;21300;52.006;5.798;2023-04-16T13:58:38;12.40;95.80
35127;DHT22;21300;52.006;5.798;2023-04-16T14:01:04;12.40;95.70
35127;DHT22;21300;52.006;5.798;2023-04-16T14:03:30;12.40;95.40
35127;DHT22;21300;52.006;5.798;2023-04-16T14:07:57;12.40;95.30
35127;DHT22;21300;52.006;5.798;2023-04-16T14:10:22;12.40;95.60
35127;DHT22;21300;52.006;5.798;2023-04-16T14:12:48;12.30;95.50
35127;DHT22;21300;52.006;5.798;2023-04-16T14:15:14;12.40;95.40
35127;DHT22;21300;52.006;5.798;2023-04-16T14:17:41;12.40;95.60
35127;DHT22;21300;52.006;5.798;2023-04-16T14:20:48;12.50;95.00
35127;DHT22;21300;52.006;5.798;2023-04-16T14:23:13;12.20;95.40
35127;DHT22;21300;52.006;5.798;2023-04-16T14:25:39;12.10;95.60
35127;DHT22;21300;52.006;5.798;2023-04-16T14:28:06;12.10;95.60
35127;DHT22;21300;52.006;5.798;2023-04-16T14:30:33;12.10;95.70
35127;DHT22;21300;52.006;5.798;2023-04-16T14:32:59;12.20;95.70
35127;DHT22;21300;52.006;5.798;2023-04-16T14:35:24;12.20;95.60
35127;DHT22;21300;52.006;5.798;2023-04-16T14:37:50;12.20;95.70
35127;DHT22;21300;52.006;5.798;2023-04-16T14:40:16;12.20;95.60
35127;DHT22;21300;52.006;5.798;2023-04-16T14:42:42;12.20;95.60
35127;DHT22;21300;52.006;5.798;2023-04-16T14:45:08;12.20;95.70
35127;DHT22;21300;52.006;5.798;2023-04-16T14:47:34;12.20;95.70
35127;DHT22;21300;52.006;5.798;2023-04-16T14:50:01;12.30;95.70
35127;DHT22;21300;52.006;5.798;2023-04-16T14:52:26;12.20;95.80
35127;DHT22;21300;52.006;5.798;2023-04-16T14:54:53;12.20;95.70
35127;DHT22;21300;52.006;5.798;2023-04-16T14:57:22;12.20;95.90
35127;DHT22;21300;52.006;5.798;2023-04-16T14:59:48;12.30;95.90
35127;DHT22;21300;52.006;5.798;2023-04-16T15:02:14;12.40;95.80
35127;DHT22;21300;52.006;5.798;2023-04-16T15:04:39;12.40;95.70
35127;DHT22;21300;52.006;5.798;2023-04-16T15:07:05;12.40;95.70
35127;DHT22;21300;52.006;5.798;2023-04-16T15:09:31;12.40;95.70
35127;DHT22;21300;52.006;5.798;2023-04-16T15:11:56;12.40;95.70
35127;DHT22;21300;52.006;5.798;2023-04-16T15:14:22;12.40;95.70
35127;DHT22;21300;52.006;5.798;2023-04-16T15:16:48;12.40;95.70
35127;DHT22;21300;52.006;5.798;2023-04-16T15:19:14;12.40;95.70
35127;DHT22;21300;52.006;5.798;2023-04-16T15:21:39;12.40;95.70
35127;DHT22;21300;52.006;5.798;2023-04-16T15:24:05;12.40;95.70
35127;DHT22;21300;52.006;5.798;2023-04-16T15:26:31;12.40;95.60
35127;DHT22;21300;52.006;5.798;2023-04-16T15:28:56;12.40;95.60
35127;DHT22;21300;52.006;5.798;2023-04-16T15:31:22;12.40;95.60
35127;DHT22;21300;52.006;5.798;2023-04-16T15:33:52;12.40;95.70
35127;DHT22;21300;52.006;5.798;2023-04-16T15:36:19;12.40;95.60
35127;DHT22;21300;52.006;5.798;2023-04-16T15:38:45;12.40;95.70
35127;DHT22;21300;52.006;5.798;2023-04-16T15:41:11;12.40;95.60
35127;DHT22;21300;52.006;5.798;2023-04-16T15:43:37;12.40;95.60
35127;DHT22;21300;52.006;5.798;2023-04-16T15:46:03;12.40;95.60
35127;DHT22;21300;52.006;5.798;2023-04-16T15:48:29;12.40;95.60
35127;DHT22;21300;52.006;5.798;2023-04-16T15:51:13;12.40;95.60